Time;durP1;ratioP1;P1;durP2;ratioP2;P2;SDS_P1;SDS_P2;PMS_P1;PMS_P2;Temp;Humidity;BMP_temperature;BMP_pressure;BME280_temperature;BME280_humidity;BME280_pressure;Samples;Min_cycle;Max_cycle;Signal;HPM_P1;HPM_P2
2023/09/07 00:00:14;;;;;;;9.60;5.88;;;;;;;;;;4930216;29;20392;-87
2023/09/07 00:02:44;;;;;;;10.85;5.93;;;;;;;;;;4932433;29;21621;-88
2023/09/07 00:05:10;;;;;;;8.95;5.70;;;;;;;;;;4934942;28;20432;-86
2023/09/07 00:07:36;;;;;;;8.70;5.85;;;;;;;;;;4934195;28;20040;-85
2023/09/07 00:10:03;;;;;;;7.70;5.47;;;19.20;99.90;;;;;;4933244;29;20035;-83
2023/09/07 00:12:29;;;;;;;8.65;6.05;;;;;;;;;;4934236;29;20059;-85
2023/09/07 00:14:55;;;;;;;9.38;5.82;;;;;;;;;;4930631;28;20027;-85
2023/09/07 00:17:21;;;;;;;7.95;5.68;;;;;;;;;;4947443;28;20047;-85
2023/09/07 00:19:50;;;;;;;7.60;5.80;;;;;;;;;;4934351;29;20032;-87
2023/09/07 00:22:17;;;;;;;10.77;5.87;;;;;;;;;;4927562;29;20035;-85
2023/09/07 00:24:46;;;;;;;8.68;5.85;;;;;;;;;;4931136;29;20501;-86
2023/09/07 00:27:12;;;;;;;13.57;6.10;;;;;;;;;;4934040;29;20544;-83
2023/09/07 00:29:38;;;;;;;9.18;5.95;;;19.00;99.90;;;;;;4948098;28;20134;-84
2023/09/07 00:32:05;;;;;;;8.77;6.00;;;;;;;;;;4937489;29;20060;-86
2023/09/07 00:34:31;;;;;;;10.02;5.43;;;;;;;;;;4932904;29;20023;-85
2023/09/07 00:36:57;;;;;;;7.05;4.50;;;;;;;;;;4950819;28;20099;-87
2023/09/07 00:39:23;;;;;;;8.35;5.00;;;;;;;;;;4928595;28;20034;-86
2023/09/07 00:41:49;;;;;;;6.20;4.65;;;;;;;;;;4952498;28;20036;-84
2023/09/07 00:44:15;;;;;;;9.90;4.72;;;;;;;;;;4938682;29;20048;-85
2023/09/07 00:46:44;;;;;;;7.82;4.72;;;19.10;99.90;;;;;;4938433;29;20032;-86
2023/09/07 00:49:13;;;;;;;6.47;4.28;;;;;;;;;;4941851;28;20031;-86
2023/09/07 00:51:39;;;;;;;6.70;5.25;;;;;;;;;;4937127;29;20174;-85
2023/09/07 00:54:05;;;;;;;8.48;4.93;;;;;;;;;;4932685;29;20035;-85
2023/09/07 00:56:31;;;;;;;7.80;5.18;;;19.00;99.90;;;;;;4928604;28;20079;-87
2023/09/07 00:58:59;;;;;;;7.85;4.85;;;18.90;99.90;;;;;;4938447;29;20027;-84
2023/09/07 01:01:35;;;;;;;7.97;5.40;;;18.90;99.90;;;;;;4943653;29;20035;-83
2023/09/07 01:04:03;;;;;;;7.07;4.95;;;;;;;;;;4949571;28;20060;-84
2023/09/07 01:07:02;;;;;;;8.32;5.07;;;18.70;99.90;;;;;;4947621;28;20047;-87
2023/09/07 01:09:31;;;;;;;7.65;5.38;;;;;;;;;;4949493;28;20120;-83
2023/09/07 01:11:57;;;;;;;8.77;5.97;;;;;;;;;;4932220;29;20502;-83
2023/09/07 01:14:23;;;;;;;9.77;6.50;;;;;;;;;;4932666;29;20127;-86
2023/09/07 01:16:50;;;;;;;8.98;5.97;;;;;;;;;;4937659;29;20504;-82
2023/09/07 01:19:19;;;;;;;9.45;5.55;;;;;;;;;;4935851;28;20035;-85
2023/09/07 01:21:46;;;;;;;8.30;5.15;;;18.60;99.90;;;;;;4934861;29;20094;-84
2023/09/07 01:24:12;;;;;;;7.82;5.45;;;;;;;;;;4937906;29;20027;-86
2023/09/07 01:26:38;;;;;;;8.60;5.75;;;;;;;;;;4936243;29;20135;-83
2023/09/07 01:29:08;;;;;;;10.05;5.57;;;18.50;99.90;;;;;;4929444;29;20480;-85
2023/09/07 01:31:38;;;;;;;7.93;5.20;;;18.50;99.90;;;;;;4934477;29;20036;-86
2023/09/07 01:34:04;;;;;;;11.32;5.63;;;;;;;;;;4938183;29;20036;-86
2023/09/07 01:36:30;;;;;;;11.60;5.82;;;;;;;;;;4936933;29;20028;-84
2023/09/07 01:38:56;;;;;;;9.55;5.47;;;;;;;;;;4936234;29;20060;-85
2023/09/07 01:41:22;;;;;;;7.32;5.03;;;;;;;;;;4936813;29;20531;-85
2023/09/07 01:43:49;;;;;;;7.82;5.22;;;;;;;;;;4936734;28;20039;-85
2023/09/07 01:46:15;;;;;;;9.20;5.40;;;;;;;;;;4947063;28;21020;-86
2023/09/07 01:48:42;;;;;;;8.40;5.35;;;;;;;;;;4932628;29;20035;-87
2023/09/07 01:51:08;;;;;;;7.65;5.25;;;;;;;;;;4937648;29;20126;-82
2023/09/07 01:53:34;;;;;;;9.27;5.55;;;;;;;;;;4939407;29;20028;-86
2023/09/07 01:56:00;;;;;;;8.25;5.50;;;;;;;;;;4934199;29;20027;-84
2023/09/07 01:58:26;;;;;;;9.98;5.40;;;;;;;;;;4934110;29;20814;-85
2023/09/07 02:00:59;;;;;;;8.13;5.55;;;;;;;;;;4936119;28;20036;-87
2023/09/07 02:03:25;;;;;;;9.65;5.60;;;;;;;;;;4933696;29;20485;-85
2023/09/07 02:05:52;;;;;;;7.85;5.25;;;18.30;99.90;;;;;;4958831;28;20050;-85
2023/09/07 02:08:19;;;;;;;8.88;5.97;;;;;;;;;;4975630;28;20027;-85
2023/09/07 02:10:45;;;;;;;10.52;5.30;;;;;;;;;;4950658;29;20040;-84
2023/09/07 02:13:11;;;;;;;8.05;5.63;;;;;;;;;;4929373;29;20026;-86
2023/09/07 02:15:40;;;;;;;8.82;5.50;;;18.20;99.90;;;;;;4931803;29;20061;-83
2023/09/07 02:18:06;;;;;;;9.23;5.65;;;;;;;;;;4942191;29;20155;-84
2023/09/07 02:20:33;;;;;;;9.65;5.72;;;;;;;;;;4945431;28;20057;-85
2023/09/07 02:22:59;;;;;;;7.43;4.93;;;;;;;;;;4958292;29;20032;-84
2023/09/07 02:25:25;;;;;;;10.98;5.40;;;;;;;;;;4945346;29;20653;-85
2023/09/07 02:27:51;;;;;;;8.70;5.20;;;;;;;;;;4954969;29;20039;-86
2023/09/07 02:30:17;;;;;;;6.78;5.15;;;;;;;;;;4943480;29;20103;-85
2023/09/07 02:32:43;;;;;;;8.25;5.55;;;;;;;;;;4942074;29;20493;-84
2023/09/07 02:35:10;;;;;;;9.80;5.10;;;;;;;;;;4934540;29;20031;-86
2023/09/07 02:37:36;;;;;;;8.20;6.00;;;;;;;;;;4940269;29;20087;-83
2023/09/07 02:40:07;;;;;;;8.48;6.00;;;;;;;;;;4942984;29;20448;-85
2023/09/07 02:42:33;;;;;;;7.68;5.03;;;;;;;;;;4959640;28;20055;-84
2023/09/07 02:44:59;;;;;;;9.18;5.45;;;;;;;;;;4954774;28;20051;-87
2023/09/07 02:47:25;;;;;;;9.50;5.50;;;;;;;;;;4942965;29;20024;-83
2023/09/07 02:49:52;;;;;;;8.80;5.40;;;;;;;;;;4930917;29;20039;-86
2023/09/07 02:52:20;;;;;;;6.80;4.90;;;;;;;;;;4959164;29;20071;-83
2023/09/07 02:54:46;;;;;;;6.68;4.53;;;;;;;;;;4948519;29;20027;-86
2023/09/07 02:57:18;;;;;;;7.38;4.80;;;;;;;;;;4944679;28;20028;-83
2023/09/07 02:59:44;;;;;;;8.23;4.68;;;;;;;;;;4957183;28;20114;-84
2023/09/07 03:02:10;;;;;;;7.68;5.15;;;;;;;;;;4941525;29;20039;-86
2023/09/07 03:04:36;;;;;;;8.00;5.22;;;;;;;;;;4935231;29;20484;-83
2023/09/07 03:07:02;;;;;;;6.63;5.00;;;;;;;;;;4944047;29;20071;-84
2023/09/07 03:09:28;;;;;;;7.68;4.85;;;;;;;;;;4952660;28;20055;-83
2023/09/07 03:11:54;;;;;;;7.30;4.82;;;;;;;;;;4943575;29;20036;-84
2023/09/07 03:14:20;;;;;;;7.78;4.88;;;;;;;;;;4942146;29;20475;-85
2023/09/07 03:16:50;;;;;;;6.18;4.60;;;;;;;;;;4929839;29;20055;-85
2023/09/07 03:19:16;;;;;;;7.93;4.50;;;;;;;;;;4963985;28;20047;-85
2023/09/07 03:21:42;;;;;;;6.45;4.72;;;;;;;;;;4957664;29;20031;-87
2023/09/07 03:24:08;;;;;;;9.65;5.32;;;;;;;;;;4958487;28;20028;-85
2023/09/07 03:26:34;;;;;;;8.38;5.00;;;;;;;;;;4942448;29;20038;-82
2023/09/07 03:29:00;;;;;;;8.27;4.80;;;;;;;;;;4935775;29;20504;-84
2023/09/07 03:31:26;;;;;;;7.60;5.25;;;;;;;;;;4958007;29;20039;-86
2023/09/07 03:33:52;;;;;;;6.70;4.97;;;;;;;;;;4941351;29;20031;-85
2023/09/07 03:36:18;;;;;;;7.90;4.75;;;;;;;;;;4935052;29;20027;-86
2023/09/07 03:38:45;;;;;;;7.63;4.75;;;;;;;;;;4942988;28;20020;-85
2023/09/07 03:41:11;;;;;;;7.13;5.32;;;;;;;;;;4938323;29;20075;-86
2023/09/07 03:43:38;;;;;;;6.88;5.32;;;;;;;;;;4969256;23;20055;-85
2023/09/07 03:46:04;;;;;;;8.73;5.30;;;;;;;;;;4943302;29;20052;-87
2023/09/07 03:48:31;;;;;;;7.78;4.95;;;;;;;;;;4942263;29;20032;-89
2023/09/07 03:50:57;;;;;;;7.70;4.72;;;;;;;;;;4960249;29;20106;-86
2023/09/07 03:53:23;;;;;;;8.98;4.57;;;;;;;;;;4945281;29;20115;-86
2023/09/07 03:55:49;;;;;;;7.07;4.10;;;;;;;;;;4944463;29;20100;-84
2023/09/07 03:58:15;;;;;;;7.38;4.40;;;;;;;;;;4946292;29;20032;-86
2023/09/07 04:00:42;;;;;;;6.90;4.55;;;;;;;;;;4945604;29;20016;-86
2023/09/07 04:03:10;;;;;;;6.30;4.20;;;;;;;;;;4947017;29;20032;-86
2023/09/07 04:05:42;;;;;;;9.40;5.65;;;;;;;;;;4924169;29;20042;-86
2023/09/07 04:08:09;;;;;;;7.13;4.50;;;;;;;;;;4943538;29;20135;-87
2023/09/07 04:10:37;;;;;;;5.75;4.82;;;;;;;;;;4940175;29;20036;-86
2023/09/07 04:13:04;;;;;;;6.95;4.55;;;;;;;;;;4959953;28;20034;-84
2023/09/07 04:15:31;;;;;;;6.93;4.70;;;;;;;;;;4940782;29;20024;-88
2023/09/07 04:17:57;;;;;;;7.22;4.88;;;;;;;;;;4942155;29;20108;-87
2023/09/07 04:20:24;;;;;;;7.47;5.35;;;;;;;;;;4945565;29;20027;-86
2023/09/07 04:22:50;;;;;;;10.63;5.65;;;;;;;;;;4947470;29;20020;-85
2023/09/07 04:25:16;;;;;;;7.22;5.18;;;;;;;;;;4958831;28;20048;-87
2023/09/07 04:27:42;;;;;;;6.05;4.85;;;;;;;;;;4950169;28;20035;-84
2023/09/07 04:30:09;;;;;;;8.05;5.13;;;;;;;;;;4943764;29;20031;-82
2023/09/07 04:32:35;;;;;;;10.57;5.22;;;;;;;;;;4959106;28;20044;-84
2023/09/07 04:35:01;;;;;;;7.45;5.10;;;;;;;;;;4937926;29;20046;-83
2023/09/07 04:37:27;;;;;;;11.55;5.55;;;;;;;;;;4945762;29;20064;-83
2023/09/07 04:39:53;;;;;;;8.35;5.30;;;;;;;;;;4944249;29;20027;-85
2023/09/07 04:42:20;;;;;;;14.60;6.13;;;;;;;;;;4946558;29;20545;-83
2023/09/07 04:44:47;;;;;;;10.07;5.20;;;;;;;;;;4964773;29;20031;-85
2023/09/07 04:47:14;;;;;;;10.25;5.80;;;;;;;;;;4943961;29;20036;-84
2023/09/07 04:49:40;;;;;;;12.60;5.72;;;;;;;;;;4942433;29;20494;-84
2023/09/07 04:52:06;;;;;;;9.75;6.18;;;;;;;;;;4945974;29;20043;-85
2023/09/07 04:54:33;;;;;;;8.93;5.82;;;;;;;;;;4947678;29;20031;-84
2023/09/07 04:56:59;;;;;;;8.07;5.55;;;;;;;;;;4944281;29;20059;-86
2023/09/07 04:59:25;;;;;;;10.52;6.32;;;;;;;;;;4943761;29;20024;-87
2023/09/07 05:01:51;;;;;;;13.00;6.40;;;;;;;;;;4946714;29;20031;-85
2023/09/07 05:04:17;;;;;;;11.98;6.53;;;;;;;;;;4943309;29;20028;-85
2023/09/07 05:06:43;;;;;;;9.32;6.10;;;;;;;;;;4945336;29;20031;-86
2023/09/07 05:09:09;;;;;;;12.10;6.13;;;;;;;;;;4939803;29;20076;-82
2023/09/07 05:11:35;;;;;;;9.68;6.45;;;;;;;;;;4938432;29;20031;-86
2023/09/07 05:14:02;;;;;;;14.27;6.53;;;;;;;;;;4940067;29;20035;-82
2023/09/07 05:16:28;;;;;;;12.27;6.68;;;;;;;;;;4936458;29;20040;-84
2023/09/07 05:18:54;;;;;;;12.35;6.90;;;;;;;;;;4938864;29;20031;-86
2023/09/07 05:21:20;;;;;;;13.73;6.88;;;;;;;;;;4959138;28;20035;-85
2023/09/07 05:23:46;;;;;;;14.35;7.65;;;17.00;99.90;;;;;;4943208;29;20036;-86
2023/09/07 05:26:12;;;;;;;11.10;6.68;;;;;;;;;;4944542;29;20024;-82
2023/09/07 05:28:41;;;;;;;13.93;7.40;;;16.90;99.90;;;;;;4938918;29;20055;-83
2023/09/07 05:31:07;;;;;;;14.13;7.05;;;;;;;;;;4940660;29;20036;-81
2023/09/07 05:33:33;;;;;;;13.32;7.65;;;;;;;;;;4944259;29;20106;-86
2023/09/07 05:36:01;;;;;;;19.92;11.18;;;;;;;;;;4953962;28;20035;-84
2023/09/07 05:38:27;;;;;;;14.75;7.30;;;;;;;;;;4944569;29;20023;-83
2023/09/07 05:40:54;;;;;;;16.05;7.40;;;;;;;;;;4943374;29;20027;-84
2023/09/07 05:43:20;;;;;;;15.43;7.55;;;;;;;;;;4956002;28;20087;-84
2023/09/07 05:45:47;;;;;;;11.90;7.35;;;;;;;;;;4944438;29;20115;-84
2023/09/07 05:48:16;;;;;;;16.65;7.50;;;;;;;;;;4946266;29;20031;-86
2023/09/07 05:50:42;;;;;;;12.52;7.78;;;;;;;;;;4941244;29;20108;-86
2023/09/07 05:53:08;;;;;;;15.77;7.75;;;;;;;;;;4946887;29;20036;-85
2023/09/07 05:55:34;;;;;;;13.18;7.90;;;;;;;;;;4934296;28;20486;-84
2023/09/07 05:58:05;;;;;;;13.60;7.18;;;;;;;;;;4937153;29;20038;-87
2023/09/07 06:00:31;;;;;;;9.57;6.43;;;;;;;;;;4943989;29;20044;-88
2023/09/07 06:02:58;;;;;;;18.10;6.65;;;;;;;;;;4948266;29;20058;-86
2023/09/07 06:05:24;;;;;;;26.02;7.32;;;;;;;;;;4950462;29;20039;-87
2023/09/07 06:07:50;;;;;;;17.15;6.07;;;;;;;;;;4960156;28;20035;-87
2023/09/07 06:10:17;;;;;;;17.25;6.70;;;;;;;;;;4940425;29;20040;-87
2023/09/07 06:12:43;;;;;;;17.98;7.53;;;;;;;;;;4945171;29;20035;-88
2023/09/07 06:15:10;;;;;;;12.85;6.25;;;;;;;;;;4952628;29;20031;-88
2023/09/07 06:17:36;;;;;;;10.45;5.63;;;;;;;;;;4950955;29;20031;-88
2023/09/07 06:20:02;;;;;;;10.45;6.32;;;;;;;;;;4950928;29;20135;-87
2023/09/07 06:22:29;;;;;;;9.52;6.03;;;;;;;;;;4957938;28;20027;-87
2023/09/07 06:24:55;;;;;;;9.40;6.28;;;;;;;;;;4951194;29;20027;-85
2023/09/07 06:27:21;;;;;;;11.95;6.30;;;;;;;;;;4943068;29;20044;-86
2023/09/07 06:29:50;;;;;;;10.85;6.65;;;;;;;;;;4943336;29;20096;-86
2023/09/07 06:32:16;;;;;;;12.70;5.97;;;;;;;;;;4950836;29;20110;-86
2023/09/07 06:34:43;;;;;;;8.73;5.60;;;;;;;;;;4949255;29;20039;-87
2023/09/07 06:37:09;;;;;;;7.65;4.70;;;;;;;;;;4951149;29;20023;-86
2023/09/07 06:39:35;;;;;;;10.50;4.78;;;;;;;;;;4948623;29;20051;-87
2023/09/07 06:42:01;;;;;;;9.13;5.65;;;;;;;;;;4947428;29;20031;-86
2023/09/07 06:44:27;;;;;;;6.88;4.25;;;;;;;;;;4951092;29;20103;-87
2023/09/07 06:46:53;;;;;;;6.95;4.32;;;;;;;;;;4955884;29;20044;-88
2023/09/07 06:49:19;;;;;;;6.07;4.10;;;;;;;;;;4948755;28;20051;-87
2023/09/07 06:51:46;;;;;;;7.38;4.22;;;;;;;;;;4957083;28;20099;-88
2023/09/07 06:54:13;;;;;;;8.07;4.50;;;;;;;;;;4970315;28;20036;-88
2023/09/07 06:56:39;;;;;;;12.23;4.55;;;;;;;;;;4951348;28;20012;-87
2023/09/07 06:59:05;;;;;;;6.50;3.67;;;;;;;;;;4966158;28;20023;-87
2023/09/07 07:01:31;;;;;;;6.32;4.00;;;;;;;;;;4961770;28;20023;-87
2023/09/07 07:03:57;;;;;;;6.22;3.50;;;;;;;;;;4957354;28;20021;-88
2023/09/07 07:06:23;;;;;;;5.25;3.58;;;;;;;;;;4968888;28;20028;-87
2023/09/07 07:08:49;;;;;;;5.35;3.60;;;;;;;;;;4952993;28;20015;-87
2023/09/07 07:11:15;;;;;;;11.10;3.80;;;;;;;;;;4964176;28;20047;-85
2023/09/07 07:13:41;;;;;;;6.40;4.22;;;;;;;;;;4967549;28;20040;-88
2023/09/07 07:16:07;;;;;;;6.57;4.03;;;;;;;;;;4952602;28;20012;-86
2023/09/07 07:18:33;;;;;;;6.30;3.90;;;;;;;;;;4962867;28;20012;-87
2023/09/07 07:20:59;;;;;;;6.68;4.30;;;;;;;;;;4968685;28;20022;-85
2023/09/07 07:23:25;;;;;;;6.72;4.05;;;;;;;;;;4958492;28;20038;-87
2023/09/07 07:25:52;;;;;;;5.47;3.65;;;;;;;;;;4955637;28;20043;-84
2023/09/07 07:28:18;;;;;;;8.13;3.60;;;;;;;;;;4953337;28;20012;-85
2023/09/07 07:30:44;;;;;;;6.05;3.53;;;;;;;;;;4951533;28;20035;-86
2023/09/07 07:33:11;;;;;;;6.95;4.05;;;;;;;;;;4964633;28;20036;-84
2023/09/07 07:35:37;;;;;;;5.50;3.28;;;;;;;;;;4955634;28;20029;-87
2023/09/07 07:38:04;;;;;;;5.72;3.53;;;21.30;99.90;;;;;;4952672;28;20020;-86
2023/09/07 07:40:31;;;;;;;4.72;3.40;;;;;;;;;;4946944;28;20028;-85
2023/09/07 07:42:57;;;;;;;5.20;3.45;;;;;;;;;;4948594;28;20043;-86
2023/09/07 07:45:23;;;;;;;6.78;3.50;;;;;;;;;;4956528;28;20020;-86
2023/09/07 07:47:49;;;;;;;9.00;3.78;;;;;;;;;;4944719;28;20012;-86
2023/09/07 07:50:16;;;;;;;8.02;3.70;;;;;;;;;;4970551;28;20099;-84
2023/09/07 07:52:42;;;;;;;5.00;3.28;;;22.00;99.90;;;;;;4966071;28;20052;-85
2023/09/07 07:55:08;;;;;;;6.75;3.58;;;;;;;;;;4951725;28;20031;-86
2023/09/07 07:57:36;;;;;;;8.27;3.67;;;;;;;;;;4959992;28;20035;-86
2023/09/07 08:00:03;;;;;;;5.78;3.50;;;;;;;;;;4960598;28;20016;-84
2023/09/07 08:02:30;;;;;;;5.22;3.33;;;;;;;;;;4963892;28;20027;-86
2023/09/07 08:04:56;;;;;;;10.43;3.72;;;;;;;;;;4967752;28;20050;-86
2023/09/07 08:07:22;;;;;;;3.88;3.17;;;;;;;;;;4967778;28;20028;-85
2023/09/07 08:09:48;;;;;;;5.20;3.53;;;;;;;;;;4966822;29;20333;-85
2023/09/07 08:12:14;;;;;;;4.40;3.35;;;;;;;;;;4948415;28;20021;-83
2023/09/07 08:14:40;;;;;;;5.57;3.65;;;;;;;;;;4957075;28;20027;-86
2023/09/07 08:17:07;;;;;;;7.93;3.30;;;;;;;;;;4948797;28;20123;-85
2023/09/07 08:19:33;;;;;;;4.82;3.20;;;;;;;;;;4944134;29;20032;-82
2023/09/07 08:21:59;;;;;;;3.47;2.85;;;;;;;;;;4944103;29;20036;-84
2023/09/07 08:24:29;;;;;;;6.50;3.30;;;;;;;;;;4940270;29;20051;-83
2023/09/07 08:26:56;;;;;;;9.88;3.67;;;;;;;;;;4943309;29;20032;-82
2023/09/07 08:29:26;;;;;;;5.88;3.40;;;;;;;;;;4957714;28;20036;-86
2023/09/07 08:31:52;;;;;;;7.20;3.15;;;;;;;;;;4941546;29;20028;-83
2023/09/07 08:34:20;;;;;;;5.25;3.25;;;;;;;;;;4943172;29;20040;-84
2023/09/07 08:36:47;;;;;;;8.00;3.45;;;;;;;;;;4936585;29;20036;-86
2023/09/07 08:39:13;;;;;;;5.53;3.00;;;;;;;;;;4951942;28;20667;-85
2023/09/07 08:41:46;;;;;;;5.43;3.33;;;23.70;99.90;;;;;;4954731;29;20032;-83
2023/09/07 08:44:19;;;;;;;7.85;3.58;;;23.70;99.90;;;;;;4937658;29;20085;-86
2023/09/07 08:46:45;;;;;;;4.82;3.17;;;;;;;;;;4937264;29;20031;-83
2023/09/07 08:49:11;;;;;;;5.13;3.33;;;23.90;99.90;;;;;;4940350;29;20064;-84
2023/09/07 08:51:38;;;;;;;6.50;3.28;;;;;;;;;;4937439;29;20622;-84
2023/09/07 08:54:04;;;;;;;6.45;3.40;;;;;;;;;;4940538;29;20035;-82
2023/09/07 08:56:30;;;;;;;5.82;3.40;;;;;;;;;;4939743;29;20034;-84
2023/09/07 08:58:56;;;;;;;8.55;4.20;;;;;;;;;;4956477;28;20126;-84
2023/09/07 09:01:23;;;;;;;5.53;3.70;;;;;;;;;;4944707;29;20054;-83
2023/09/07 09:03:49;;;;;;;7.68;3.47;;;;;;;;;;4938847;29;20032;-84
2023/09/07 09:06:18;;;;;;;5.10;3.20;;;24.90;99.90;;;;;;4941127;29;20109;-82
2023/09/07 09:08:45;;;;;;;5.40;3.42;;;25.00;99.90;;;;;;4945544;29;20106;-83
2023/09/07 09:11:12;;;;;;;5.57;3.28;;;25.10;99.90;;;;;;4932322;29;20103;-84
2023/09/07 09:13:40;;;;;;;9.02;3.08;;;25.30;99.90;;;;;;4937464;29;20032;-83
2023/09/07 09:16:06;;;;;;;4.82;3.10;;;;;;;;;;4942148;29;20670;-85
2023/09/07 09:18:32;;;;;;;4.25;3.22;;;;;;;;;;4943243;29;20037;-84
2023/09/07 09:21:01;;;;;;;5.40;3.53;;;;;;;;;;4942478;29;20027;-85
2023/09/07 09:23:33;;;;;;;5.15;3.00;;;25.60;99.90;;;;;;4939740;29;20031;-85
2023/09/07 09:26:01;;;;;;;6.53;3.45;;;25.70;99.90;;;;;;4937215;29;20778;-84
2023/09/07 09:28:31;;;;;;;5.95;3.35;;;;;;;;;;4939079;29;20035;-84
2023/09/07 09:30:57;;;;;;;4.18;3.20;;;;;;;;;;4955037;28;20024;-84
2023/09/07 09:33:23;;;;;;;6.05;3.17;;;;;;;;;;4941022;29;20060;-84
2023/09/07 09:35:50;;;;;;;4.78;3.10;;;;;;;;;;4950155;29;20027;-84
2023/09/07 09:38:17;;;;;;;5.15;3.15;;;25.90;99.90;;;;;;4960750;29;20126;-84
2023/09/07 09:40:43;;;;;;;4.47;3.10;;;;;;;;;;4946252;29;20032;-84
2023/09/07 09:43:09;;;;;;;5.60;3.33;;;;;;;;;;4947802;29;20040;-82
2023/09/07 09:45:35;;;;;;;6.95;3.50;;;;;;;;;;4946888;29;20058;-84
2023/09/07 09:48:01;;;;;;;5.43;3.40;;;;;;;;;;4944208;29;20067;-84
2023/09/07 09:50:28;;;;;;;5.07;3.40;;;;;;;;;;4945805;29;20051;-83
2023/09/07 09:52:55;;;;;;;5.78;3.20;;;;;;;;;;4942880;29;20482;-85
2023/09/07 09:55:22;;;;;;;4.45;3.20;;;26.30;99.90;;;;;;4944421;29;20028;-85
2023/09/07 09:57:49;;;;;;;5.82;3.25;;;;;;;;;;4949566;29;20035;-85
2023/09/07 10:02:54;;;;;;;6.93;3.20;;;26.50;99.90;;;;;;4939460;29;20036;-81
2023/09/07 10:05:20;;;;;;;4.50;3.13;;;;;;;;;;4945612;29;20909;-84
2023/09/07 10:07:49;;;;;;;4.63;3.20;;;26.70;99.90;;;;;;4943489;29;20042;-83
2023/09/07 10:10:16;;;;;;;9.48;3.30;;;;;;;;;;4942701;29;20031;-84
2023/09/07 10:12:50;;;;;;;4.15;3.20;;;26.90;99.90;;;;;;4945041;28;20039;-84
2023/09/07 10:15:27;;;;;;;4.35;3.60;;;27.90;99.90;;;;;;4942177;29;20060;-82
2023/09/07 10:18:19;;;;;;;5.45;3.30;;;;;;;;;;4941418;29;20025;-84
2023/09/07 10:20:49;;;;;;;6.32;3.40;;;26.90;99.70;;;;;;4934749;29;20103;-83
2023/09/07 10:23:15;;;;;;;7.00;3.72;;;;;;;;;;4956900;28;20035;-84
2023/09/07 10:25:42;;;;;;;6.88;3.70;;;;;;;;;;4941810;29;20039;-85
2023/09/07 10:28:25;;;;;;;7.70;3.80;;;26.90;99.80;;;;;;4940970;29;20028;-83
2023/09/07 10:31:03;;;;;;;4.50;3.20;;;26.80;99.90;;;;;;4941234;29;20036;-83
2023/09/07 10:33:38;;;;;;;4.75;3.63;;;26.80;99.90;;;;;;4945208;29;20036;-84
2023/09/07 10:36:05;;;;;;;5.55;3.60;;;;;;;;;;4944227;29;20044;-85
2023/09/07 10:38:35;;;;;;;6.03;3.40;;;27.00;99.90;;;;;;4947223;29;20047;-84
2023/09/07 10:41:02;;;;;;;10.38;3.70;;;27.20;99.70;;;;;;4945888;29;20028;-85
2023/09/07 10:43:30;;;;;;;4.78;3.45;;;27.40;99.50;;;;;;4965741;28;20092;-85
2023/09/07 10:45:57;;;;;;;9.60;4.40;;;;;;;;;;4953820;28;20023;-85
2023/09/07 10:48:23;;;;;;;4.93;3.28;;;;;;;;;;4950828;29;20031;-85
2023/09/07 10:50:51;;;;;;;4.65;3.17;;;;;;;;;;4949163;29;20023;-82
2023/09/07 10:53:27;;;;;;;6.25;3.55;;;;;;;;;;4942768;29;20047;-82
2023/09/07 10:55:53;;;;;;;7.10;3.50;;;;;;;;;;4942081;29;20027;-83
2023/09/07 10:58:27;;;;;;;7.55;3.70;;;27.60;98.30;;;;;;4942783;29;20027;-82
2023/09/07 11:00:54;;;;;;;5.35;3.53;;;;;;;;;;4956452;29;20031;-82
2023/09/07 11:03:20;;;;;;;12.25;3.72;;;;;;;;;;4947799;29;20068;-82
2023/09/07 11:05:46;;;;;;;4.85;3.42;;;;;;;;;;4943932;29;20043;-85
2023/09/07 11:08:12;;;;;;;7.03;3.63;;;;;;;;;;4941919;29;20059;-84
2023/09/07 11:10:38;;;;;;;5.70;3.78;;;;;;;;;;4942829;29;20023;-81
2023/09/07 11:13:04;;;;;;;4.43;3.38;;;;;;;;;;4943437;28;20174;-84
2023/09/07 11:15:31;;;;;;;4.50;3.72;;;;;;;;;;4942682;29;20043;-87
2023/09/07 11:17:57;;;;;;;7.63;3.63;;;;;;;;;;4944996;29;20054;-86
2023/09/07 11:20:24;;;;;;;4.72;3.30;;;;;;;;;;4941123;29;20030;-86
2023/09/07 11:22:51;;;;;;;4.50;3.50;;;;;;;;;;4943176;29;20036;-87
2023/09/07 11:25:18;;;;;;;9.10;3.40;;;;;;;;;;4940059;29;20039;-86
2023/09/07 11:27:44;;;;;;;4.85;3.70;;;;;;;;;;4938045;29;20046;-87
2023/09/07 11:30:11;;;;;;;6.93;3.15;;;;;;;;;;4940015;29;20039;-86
2023/09/07 11:32:39;;;;;;;4.53;3.55;;;;;;;;;;4960126;28;20079;-88
2023/09/07 11:35:07;;;;;;;4.40;3.50;;;;;;;;;;4944748;29;20041;-86
2023/09/07 11:37:34;;;;;;;6.68;3.75;;;;;;;;;;4937828;29;20028;-84
2023/09/07 11:40:00;;;;;;;5.28;3.70;;;;;;;;;;4944037;28;20028;-85
2023/09/07 11:42:26;;;;;;;5.47;3.75;;;;;;;;;;4934973;29;20453;-85
2023/09/07 11:44:54;;;;;;;6.85;4.20;;;;;;;;;;4944915;29;20134;-87
2023/09/07 11:47:20;;;;;;;6.65;3.65;;;;;;;;;;4942725;29;20039;-85
2023/09/07 11:49:48;;;;;;;5.82;3.25;;;;;;;;;;4939433;29;20036;-86
2023/09/07 11:52:14;;;;;;;7.15;3.60;;;;;;;;;;4939878;29;20122;-87
2023/09/07 11:54:40;;;;;;;6.97;3.60;;;;;;;;;;4944464;29;20028;-86
2023/09/07 11:57:06;;;;;;;4.88;3.47;;;;;;;;;;4944693;29;20023;-86
2023/09/07 11:59:34;;;;;;;5.55;3.88;;;;;;;;;;4944552;29;20107;-85
2023/09/07 12:02:03;;;;;;;5.10;3.20;;;;;;;;;;4941630;29;20036;-86
2023/09/07 12:04:29;;;;;;;4.40;3.38;;;;;;;;;;4979361;23;20059;-86
2023/09/07 12:06:55;;;;;;;7.10;3.90;;;;;;;;;;4972744;28;20035;-86
2023/09/07 12:09:21;;;;;;;7.35;3.65;;;;;;;;;;4982828;28;20049;-85
2023/09/07 12:11:47;;;;;;;5.15;3.75;;;;;;;;;;4977211;28;20023;-88
2023/09/07 12:14:13;;;;;;;5.13;3.47;;;;;;;;;;4976552;28;20086;-86
2023/09/07 12:16:39;;;;;;;5.03;3.38;;;;;;;;;;4984442;28;20019;-86
2023/09/07 12:19:05;;;;;;;5.70;3.70;;;;;;;;;;4980437;28;20043;-83
2023/09/07 12:21:31;;;;;;;4.57;3.42;;;;;;;;;;4976212;28;20023;-84
2023/09/07 12:23:57;;;;;;;7.57;3.28;;;;;;;;;;4981144;28;20046;-86
2023/09/07 12:26:23;;;;;;;5.25;3.72;;;;;;;;;;4981972;28;20019;-86
2023/09/07 12:28:50;;;;;;;5.45;3.33;;;;;;;;;;4978495;28;20042;-84
2023/09/07 12:31:16;;;;;;;4.22;3.58;;;;;;;;;;4982455;28;20050;-84
2023/09/07 12:33:43;;;;;;;5.43;3.83;;;;;;;;;;4971140;28;20058;-86
2023/09/07 12:36:10;;;;;;;4.78;3.97;;;;;;;;;;4959701;28;20369;-84
2023/09/07 12:38:36;;;;;;;6.57;3.85;;;;;;;;;;4969716;28;20050;-85
2023/09/07 12:41:02;;;;;;;4.45;3.55;;;;;;;;;;4970788;28;20027;-82
2023/09/07 12:43:28;;;;;;;4.85;3.30;;;;;;;;;;4971152;28;20047;-84
2023/09/07 12:45:54;;;;;;;4.60;3.40;;;;;;;;;;4967246;28;20031;-84
2023/09/07 12:48:20;;;;;;;5.43;3.03;;;;;;;;;;4971044;28;20038;-84
2023/09/07 12:50:46;;;;;;;3.97;3.13;;;;;;;;;;4970156;28;20019;-84
2023/09/07 12:53:12;;;;;;;6.50;3.45;;;;;;;;;;4965460;28;20093;-85
2023/09/07 12:55:41;;;;;;;5.25;3.17;;;;;;;;;;4965446;28;20038;-84
2023/09/07 12:58:07;;;;;;;5.90;3.45;;;;;;;;;;4967370;28;20047;-85
2023/09/07 13:00:33;;;;;;;4.53;3.22;;;;;;;;;;4970835;28;20063;-84
2023/09/07 13:02:59;;;;;;;4.82;3.60;;;;;;;;;;4971267;28;20028;-86
2023/09/07 13:05:25;;;;;;;4.50;3.42;;;;;;;;;;4970086;28;20476;-85
2023/09/07 13:07:54;;;;;;;5.32;3.30;;;;;;;;;;4975886;28;20042;-84
2023/09/07 13:10:20;;;;;;;4.47;3.30;;;;;;;;;;4990117;28;20027;-86
2023/09/07 13:12:46;;;;;;;3.95;3.40;;;;;;;;;;4977738;28;20333;-86
2023/09/07 13:15:12;;;;;;;6.22;3.35;;;;;;;;;;4975993;28;20118;-85
2023/09/07 13:17:38;;;;;;;3.90;2.92;;;;;;;;;;4973647;28;20041;-85
2023/09/07 13:20:05;;;;;;;3.95;3.15;;;;;;;;;;4972726;28;20055;-85
2023/09/07 13:22:31;;;;;;;4.53;3.15;;;;;;;;;;4973186;28;20022;-86
2023/09/07 13:24:58;;;;;;;4.35;3.10;;;;;;;;;;4967750;28;20078;-86
2023/09/07 13:27:27;;;;;;;4.20;3.25;;;;;;;;;;4971820;28;20031;-86
2023/09/07 13:29:53;;;;;;;6.35;3.30;;;;;;;;;;4969502;28;20035;-84
2023/09/07 13:32:19;;;;;;;5.80;3.17;;;;;;;;;;4970075;28;20045;-86
2023/09/07 13:34:48;;;;;;;5.47;3.40;;;;;;;;;;4970999;28;20428;-85
2023/09/07 13:37:14;;;;;;;6.38;3.38;;;;;;;;;;4971706;28;20027;-85
2023/09/07 13:39:42;;;;;;;5.80;3.38;;;;;;;;;;4976490;28;20054;-87
2023/09/07 13:42:08;;;;;;;4.32;3.10;;;;;;;;;;4977301;28;20039;-86
2023/09/07 13:44:34;;;;;;;4.10;3.17;;;;;;;;;;4971988;28;20045;-86
2023/09/07 13:47:03;;;;;;;4.78;3.28;;;;;;;;;;4976212;28;20038;-86
2023/09/07 13:49:30;;;;;;;5.55;3.28;;;;;;;;;;4978479;28;20058;-86
2023/09/07 13:51:56;;;;;;;5.68;3.30;;;;;;;;;;4983188;28;20053;-85
2023/09/07 13:54:22;;;;;;;4.20;3.30;;;;;;;;;;4987375;28;20443;-86
2023/09/07 13:56:51;;;;;;;6.35;3.35;;;;;;;;;;4994468;28;20035;-86
2023/09/07 13:59:17;;;;;;;5.32;2.97;;;;;;;;;;4981856;28;20026;-85
2023/09/07 14:01:43;;;;;;;4.45;3.50;;;;;;;;;;4989286;28;20175;-86
2023/09/07 14:04:09;;;;;;;5.82;3.40;;;;;;;;;;4991640;28;20038;-87
2023/09/07 14:06:35;;;;;;;4.90;3.60;;;;;;;;;;4984729;28;20023;-85
2023/09/07 14:09:06;;;;;;;5.90;3.40;;;;;;;;;;4981894;28;20037;-85
2023/09/07 14:11:33;;;;;;;4.28;3.17;;;;;;;;;;4973926;28;20042;-85
2023/09/07 14:13:59;;;;;;;6.63;3.28;;;;;;;;;;4974118;28;20047;-86
2023/09/07 14:16:25;;;;;;;4.60;3.40;;;;;;;;;;4981928;28;20038;-86
2023/09/07 14:18:51;;;;;;;5.28;3.20;;;;;;;;;;4985625;28;20042;-84
2023/09/07 14:21:18;;;;;;;6.30;3.10;;;;;;;;;;4980347;28;20122;-85
2023/09/07 14:23:44;;;;;;;5.15;3.33;;;;;;;;;;4972899;28;20090;-85
2023/09/07 14:26:10;;;;;;;7.10;3.55;;;;;;;;;;4968055;28;20104;-85